Home > Products > Valid Products > TAF

000
FTUS41 KLWX 041138
TAFMRB
TAF
KMRB 041138Z 0412/0512 09005KT 2SM -SHRA BR OVC008
     FM041600 12005KT 3SM SHRA VCTS OVC008CB
     FM041900 00000KT P6SM BKN050
     FM050400 00000KT 5SM BR BKN250
     FM050600 00000KT 1/2SM FG BKN200
     FM051100 00000KT P6SM BKN200=



000
FTUS41 KLWX 041138
TAFCHO
TAF
KCHO 041138Z 0412/0512 00000KT 2SM BR OVC008
     FM041400 00000KT P6SM OVC015
     FM041600 28004KT 5SM -SHRA VCTS BKN050CB
     FM042200 32005KT P6SM BKN050
     FM050600 00000KT 2SM BR BKN250
     FM051100 00000KT P6SM BKN200=



000
FTUS41 KLWX 041137
TAFIAD
TAF
KIAD 041137Z 0412/0518 03004KT 6SM -SHRA OVC008
     FM041600 11006KT P6SM SHRA VCTS OVC025CB
     FM042200 13006KT P6SM BKN050
     FM050200 06004KT P6SM BKN250
     FM050900 00000KT 2SM BR OVC200
     FM051100 00000KT P6SM BKN200=



000
FTUS41 KLWX 041137
TAFMRB
TAF
KMRB 041137Z 0412/0512 09005KT 6SM -SHRA OVC008
     FM041600 12005KT 3SM SHRA VCTS OVC008CB
     FM041900 00000KT P6SM BKN050
     FM050400 00000KT 5SM BR BKN250
     FM050600 00000KT 1/2SM FG BKN200
     FM051100 00000KT P6SM BKN200=



000
FTUS41 KLWX 041137
TAFBWI
TAF
KBWI 041137Z 0412/0518 07006KT 6SM -SHRA OVC015
     FM041500 04006KT P6SM -SHRA OVC025
     FM041900 05006KT P6SM OVC025
     FM042300 10004KT P6SM BKN050
     FM050600 VRB03KT 5SM BR BKN150
     FM050900 00000KT 2SM BR BKN200
     FM051100 00000KT P6SM BKN200=



000
FTUS41 KLWX 041137
TAFDCA
TAF
KDCA 041137Z 0412/0512 36008KT P6SM -SHRA OVC015
     FM041600 05005KT P6SM SHRA VCTS OVC025CB
     FM042200 09005KT P6SM BKN050
     FM050400 03004KT P6SM BKN200=



000
FTUS41 KLWX 041137
TAFMTN
TAF
KMTN 041137Z 0412/0512 06006KT 6SM -SHRA OVC015
     FM041500 35007KT 5SM -SHRA OVC015
     FM041800 04005KT P6SM OVC025
     FM042300 VRB03KT P6SM BKN050=



000
FTUS41 KLWX 041137
TAFCHO
TAF
KCHO 041137Z 0412/0512 00000KT P6SM OVC008
     FM041400 00000KT P6SM OVC015
     FM041600 28004KT 5SM -SHRA VCTS BKN050CB
     FM042200 32005KT P6SM BKN050
     FM050600 00000KT 2SM BR BKN250
     FM051100 00000KT P6SM BKN200=



000
FTUS41 KLWX 041031 AAA
TAFBWI
TAF AMD
KBWI 041031Z 0411/0512 07005KT 5SM -SHRA BR OVC025
     FM041400 01007KT 5SM -SHRA OVC015
     FM041800 04006KT 5SM -SHRA OVC025
     FM042000 10004KT P6SM BKN050
     FM050200 04005KT P6SM BKN050
     FM050900 VRB03KT 2SM BR BKN015=



000
FTUS41 KLWX 041031 AAA
TAFDCA
TAF AMD
KDCA 041031Z 0411/0506 06005KT 5SM -SHRA BR OVC025
     FM041400 36008KT 5SM -SHRA OVC015
     FM041800 05005KT P6SM OVC025
     FM042300 09005KT P6SM BKN050
     FM050100 03005KT P6SM BKN050=



000
FTUS41 KLWX 041031 AAA
TAFDCA
TAF AMD
KDCA 041031Z 0411/0506 06005KT 5SM -SHRA BR OVC025
     FM041400 36008KT 5SM -SHRA OVC015
     FM041800 05005KT P6SM OVC025
     FM042300 09005KT P6SM BKN050
     FM050100 03005KT P6SM BKN050=



000
FTUS41 KLWX 041031 AAA
TAFBWI
TAF AMD
KBWI 041031Z 0411/0512 07005KT 5SM -SHRA BR OVC025
     FM041400 01007KT 5SM -SHRA OVC015
     FM041800 04006KT 5SM -SHRA OVC025
     FM042000 10004KT P6SM BKN050
     FM050200 04005KT P6SM BKN050
     FM050900 VRB03KT 2SM BR BKN015=



000
FTUS41 KLWX 041030 AAA
TAFIAD
TAF AMD
KIAD 041030Z 0411/0512 VRB03KT 5SM -SHRA BR OVC015
     FM041500 05004KT 5SM -SHRA OVC015
     FM042000 11006KT P6SM OVC025
     FM042300 13006KT P6SM BKN050
     FM050900 00000KT 2SM BR BKN050=



000
FTUS41 KLWX 041030 AAA
TAFIAD
TAF AMD
KIAD 041030Z 0411/0512 VRB03KT 5SM -SHRA BR OVC015
     FM041500 05004KT 5SM -SHRA OVC015
     FM042000 11006KT P6SM OVC025
     FM042300 13006KT P6SM BKN050
     FM050900 00000KT 2SM BR BKN050=



000
FTUS41 KLWX 040832 AAA
TAFMRB
TAF AMD
KMRB 040832Z 0409/0506 14004KT 5SM -SHRA BR OVC035
     FM041000 13004KT 3SM SHRA BR OVC015
     FM041600 12005KT P6SM SHRA VCTS OVC015CB
     FM041900 00000KT P6SM OVC025
     FM042300 00000KT P6SM BKN050
     FM050200 VRB03KT 5SM BR BKN050=



000
FTUS41 KLWX 040542 RRA
TAFBWI
TAF
KBWI 040542Z 0406/0512 VRB03KT 6SM -SHRA OVC060
     FM040900 VRB03KT 5SM -SHRA BR OVC015
     FM041100 07005KT 5SM -SHRA BR OVC008
     FM041500 01007KT 5SM -SHRA OVC015
     FM041800 04006KT 5SM -SHRA OVC025
     FM042000 10004KT P6SM BKN050
     FM050200 04005KT P6SM BKN050
     FM050900 VRB03KT 2SM BR BKN015=



000
FTUS41 KLWX 040542 RRA
TAFMRB
TAF
KMRB 040542Z 0406/0506 14004KT 3SM SHRA BR OVC025
     FM040700 13004KT 2SM SHRA BR OVC015
     FM041000 11004KT 2SM -SHRA BR OVC008
     FM041400 12006KT 5SM -SHRA OVC015
     FM041600 12005KT P6SM SHRA VCTS OVC015CB
     FM041900 00000KT P6SM OVC025
     FM042300 00000KT P6SM BKN050
     FM050200 VRB03KT 5SM BR BKN050=



000
FTUS41 KLWX 040542 RRA
TAFMTN
TAF
KMTN 040542Z 0406/0506 NIL=



000
FTUS41 KLWX 040542 RRA
TAFCHO
TAF
KCHO 040542Z 0406/0506 VRB03KT 5SM -SHRA BR OVC015
     FM040700 VRB03KT 3SM BR OVC008
     FM041300 00000KT P6SM OVC050
     FM041600 00000KT P6SM SHRA VCTS OVC050CB
     FM041900 24004KT 5SM SHRA BKN050
     FM042200 32005KT P6SM BKN050
     FM050200 VRB03KT 5SM BR BKN050
     FM050500 00000KT 5SM BR SCT050=



000
FTUS41 KLWX 040542 RRA
TAFIAD
TAF
KIAD 040542Z 0406/0512 VRB03KT 6SM -SHRA OVC070
     FM040800 00000KT 6SM BR OVC015
     FM041000 VRB03KT 5SM -SHRA BR OVC008
     FM041500 05004KT 5SM -SHRA OVC015
     FM042000 11006KT P6SM OVC025
     FM042300 13006KT P6SM BKN050
     FM050900 00000KT 2SM BR BKN050=



000
FTUS41 KLWX 040542 RRA
TAFDCA
TAF
KDCA 040542Z 0406/0506 07004KT 6SM -SHRA OVC100
     FM040900 06005KT 5SM -SHRA BR OVC015
     FM041500 36008KT 5SM -SHRA OVC015
     FM041800 05005KT P6SM OVC025
     FM042300 09005KT P6SM BKN050
     FM050100 03005KT P6SM BKN050=



000
FTUS41 KLWX 032320
TAFBWI
TAF
KBWI 032320Z 0400/0506 14005KT P6SM OVC080
     FM040400 14006KT 5SM -SHRA BR SCT015 OVC050
     FM040800 08007KT 5SM -SHRA BR BKN015 OVC050
     FM041000 07008KT 5SM -SHRA BR BKN008 OVC015
     FM041600 04010KT 5SM -SHRA BKN015 OVC025
     FM041900 05008KT P6SM BKN025 OVC050
     FM042300 03006KT P6SM BKN050=



000
FTUS41 KLWX 032320
TAFIAD
TAF
KIAD 032320Z 0400/0506 VRB03KT P6SM VCSH OVC050
     FM040200 VRB03KT 5SM -SHRA OVC050
     FM040600 VRB03KT 5SM -SHRA BR OVC015
     FM040900 VRB04KT 5SM -SHRA BR BKN008 OVC015
     FM041400 36005KT 5SM -SHRA OVC015
     FM041800 36004KT P6SM BKN025
     FM042300 01006KT P6SM BKN050=



000
FTUS41 KLWX 032320
TAFMTN
TAF
KMTN 032320Z 0400/0424 14005KT P6SM OVC080
     FM040400 12006KT 5SM -SHRA BR SCT015 OVC050
     FM040800 08007KT 5SM -SHRA BR BKN015 OVC050
     FM041000 06008KT 5SM -SHRA BR BKN008 OVC015
     FM041600 03008KT 5SM -SHRA BKN015 OVC025
      AMD NOT SKED 0402/0412=



000
FTUS41 KLWX 032320
TAFCHO
TAF
KCHO 032320Z 0400/0424 VRB03KT 5SM -SHRA BKN025 OVC050
     FM040300 VRB03KT 5SM -SHRA BKN015 OVC025
     FM040600 VRB03KT 5SM -SHRA BR BKN008 OVC015
     FM041300 VRB03KT P6SM BKN015 BKN050
     FM041600 VRB03KT 5SM -SHRA BKN050
     FM042200 00000KT P6SM BKN050=



000
FTUS41 KLWX 032320
TAFMRB
TAF
KMRB 032320Z 0400/0424 15005KT P6SM VCSH OVC050
     FM040400 VRB03KT 3SM SHRA BKN015 OVC025
     FM040900 07004KT 2SM -SHRA BR BKN008 OVC015
     FM041400 02005KT 5SM -SHRA BKN015 OVC025
     FM041800 VRB03KT 5SM -SHRA BKN025 BKN050
     FM042200 01004KT P6SM BKN050=



000
FTUS41 KLWX 032320
TAFDCA
TAF
KDCA 032320Z 0400/0424 13006KT 5SM -SHRA OVC050
     FM040600 10005KT 5SM -SHRA BR OVC015
     FM040900 07007KT 5SM -SHRA BR BKN008 OVC015
     FM041400 01006KT 5SM -SHRA OVC015
     FM041800 04007KT P6SM BKN025
     FM042100 02006KT P6SM BKN050=



000
FTUS41 KLWX 032051 AAA
TAFDCA
TAF AMD
KDCA 032051Z 0321/0418 16006KT P6SM SCT050 OVC100
     FM040000 15005KT 6SM -SHRA BKN050 OVC100
     FM040700 10006KT 4SM -SHRA OVC050
     FM040900 07006KT 3SM -SHRA SCT008 BKN015 OVC030
     FM041600 32006KT P6SM -SHRA OVC025=



000
FTUS41 KLWX 032051 AAA
TAFIAD
TAF AMD
KIAD 032051Z 0321/0424 15006KT P6SM SCT050 OVC100
     FM032200 15005KT 6SM -SHRA BKN050 OVC100
     FM040400 13006KT 5SM -SHRA OVC050
     FM040700 11005KT 3SM -SHRA OVC040
     FM041000 07004KT 3SM -SHRA SCT008 OVC015
     FM041600 34006KT P6SM OVC035=



000
FTUS41 KLWX 032051 AAA
TAFBWI
TAF AMD
KBWI 032051Z 0321/0424 14005KT P6SM SCT050 OVC200
     FM040400 10005KT 4SM -SHRA OVC060
     FM041000 07006KT 3SM -SHRA SCT008 BKN015 OVC030
     FM041600 35006KT P6SM -SHRA OVC030
     FM041900 35007KT P6SM OVC035=



000
FTUS41 KLWX 031729
TAFDCA
TAF
KDCA 031729Z 0318/0418 15006KT P6SM SCT050 BKN120
     FM040400 13006KT 6SM -SHRA OVC060
     FM040700 10006KT 4SM -SHRA OVC050
     FM040900 09006KT 3SM -SHRA OVC020
     FM041300 10005KT 5SM -SHRA OVC020
     FM041700 32006KT P6SM -SHRA OVC025=



000
FTUS41 KLWX 031729
TAFBWI
TAF
KBWI 031729Z 0318/0424 14006KT P6SM SCT050 BKN200
     FM040700 10005KT 4SM -SHRA OVC060
     FM041000 09006KT 3SM -SHRA OVC040
     FM041300 10006KT 4SM -SHRA OVC030
     FM041600 35006KT P6SM -SHRA OVC030
     FM041900 35007KT P6SM OVC035=



000
FTUS41 KLWX 031729
TAFMTN
TAF
KMTN 031729Z 0318/0418 14005KT P6SM SCT050 BKN200
     FM040700 11005KT P6SM -SHRA OVC060
     FM041000 09006KT 4SM -SHRA OVC050
     FM041300 09007KT 3SM -SHRA OVC035
     FM041700 36007KT 3SM -SHRA OVC030=



000
FTUS41 KLWX 031729
TAFMRB
TAF
KMRB 031729Z 0318/0418 15006KT P6SM SCT050 BKN130
     FM032200 15006KT P6SM -SHRA OVC060
     FM040100 14004KT 4SM -SHRA OVC050
     FM040400 13004KT 3SM -SHRA OVC045
     FM040700 08004KT 2SM -SHRA OVC025
     FM041300 09004KT 6SM -SHRA OVC020=



000
FTUS41 KLWX 031729
TAFIAD
TAF
KIAD 031729Z 0318/0424 15006KT P6SM SCT050 BKN100
     FM040400 13006KT 5SM -SHRA OVC050
     FM040700 11005KT 3SM -SHRA OVC040
     FM041000 09004KT 6SM -SHRA OVC010
     FM041400 33004KT 3SM -SHRA OVC015
     FM041800 34006KT P6SM OVC035=



000
FTUS41 KLWX 031729
TAFCHO
TAF
KCHO 031729Z 0318/0418 14004KT P6SM BKN045 BKN050
     FM032200 12004KT P6SM -SHRA OVC040
     FM040100 09004KT 3SM -SHRA OVC035
     FM040400 11004KT 6SM -SHRA OVC020
     FM040600 VRB03KT 6SM -SHRA OVC008
     FM041300 25004KT 4SM -SHRA OVC030=



000
FTUS41 KLWX 031729
TAFCHO
TAF
KCHO 031729Z 0318/0418 14004KT P6SM BKN045 BKN050
     FM032200 12004KT P6SM -SHRA OVC040
     FM040100 09004KT 3SM -SHRA OVC035
     FM040400 11004KT 6SM -SHRA OVC020
     FM040600 VRB03KT 6SM -SHRA OVC008
     FM041300 25004KT 4SM -SHRA OVC030=



000
FTUS41 KLWX 031434 AAA
TAFIAD
TAF AMD
KIAD 031434Z 0315/0418 13004KT P6SM SCT050 BKN140
     FM032100 15008KT P6SM SCT050 OVC060
     FM040100 13006KT P6SM -SHRA OVC050
     FM040400 13007KT 3SM -SHRA BR OVC040
     FM041400 30005KT 5SM -SHRA BR OVC015=



000
FTUS41 KLWX 031434 AAA
TAFBWI
TAF AMD
KBWI 031434Z 0315/0418 11004KT P6SM SCT050 BKN200
     FM040400 12005KT P6SM -SHRA OVC050
     FM040700 10005KT 5SM -SHRA BR OVC045
     FM041100 10006KT 4SM -SHRA BR OVC008
     FM041500 10005KT P6SM -SHRA OVC015 WS020/05025KT=



000
FTUS41 KLWX 031434 AAA
TAFMTN
TAF AMD
KMTN 031434Z 0315/0412 10004KT P6SM FEW050 SCT200
     FM032100 16005KT P6SM SCT050 BKN090
     FM040700 10004KT P6SM -SHRA OVC050
     FM041000 08006KT 4SM -SHRA BR OVC040=



000
FTUS41 KLWX 031434 AAA
TAFDCA
TAF AMD
KDCA 031434Z 0315/0412 12004KT P6SM SCT050 BKN150
     FM040400 13006KT 4SM -SHRA BR OVC050
     FM040700 10006KT 3SM -SHRA BR OVC035=



000
FTUS41 KLWX 031434 AAA
TAFCHO
TAF AMD
KCHO 031434Z 0315/0412 11004KT 5SM BR SCT050 BKN060
     FM031900 14004KT 5SM -SHRA BR BKN040 BKN050
     FM032200 12005KT 3SM -SHRA BR OVC040
     FM040400 10005KT 2SM -SHRA BR OVC015
     FM040600 08004KT 2SM -SHRA BR OVC003
     FM040800 VRB03KT 2SM -SHRA BR OVC008=



000
FTUS41 KLWX 031434 AAA
TAFBWI
TAF AMD
KBWI 031434Z 0315/0418 11004KT P6SM SCT050 BKN200
     FM040400 12005KT P6SM -SHRA OVC050
     FM040700 10005KT 5SM -SHRA BR OVC045
     FM041100 10006KT 4SM -SHRA BR OVC008
     FM041500 10005KT P6SM -SHRA OVC015 WS020/05025KT=



000
FTUS41 KLWX 031434 AAA
TAFMRB
TAF AMD
KMRB 031434Z 0315/0412 VRB03KT 6SM BR SCT050 BKN150
     FM032200 15006KT P6SM -SHRA OVC050
     FM040100 14004KT 5SM -SHRA BR OVC040
     FM040400 13005KT 2SM -SHRA BR OVC030
     FM040900 06004KT 2SM -SHRA BR OVC008=



000
FTUS41 KLWX 031434 AAA
TAFDCA
TAF AMD
KDCA 031434Z 0315/0412 12004KT P6SM SCT050 BKN150
     FM040400 13006KT 4SM -SHRA BR OVC050
     FM040700 10006KT 3SM -SHRA BR OVC035=



000
FTUS41 KLWX 031434 AAA
TAFMTN
TAF AMD
KMTN 031434Z 0315/0412 10004KT P6SM FEW050 SCT200
     FM032100 16005KT P6SM SCT050 BKN090
     FM040700 10004KT P6SM -SHRA OVC050
     FM041000 08006KT 4SM -SHRA BR OVC040=



000
FTUS41 KLWX 031434 AAA
TAFIAD
TAF AMD
KIAD 031434Z 0315/0418 13004KT P6SM SCT050 BKN140
     FM032100 15008KT P6SM SCT050 OVC060
     FM040100 13006KT P6SM -SHRA OVC050
     FM040400 13007KT 3SM -SHRA BR OVC040
     FM041400 30005KT 5SM -SHRA BR OVC015=



000
FTUS41 KLWX 031434 AAA
TAFCHO
TAF AMD
KCHO 031434Z 0315/0412 11004KT 5SM BR SCT050 BKN060
     FM031900 14004KT 5SM -SHRA BR BKN040 BKN050
     FM032200 12005KT 3SM -SHRA BR OVC040
     FM040400 10005KT 2SM -SHRA BR OVC015
     FM040600 08004KT 2SM -SHRA BR OVC003
     FM040800 VRB03KT 2SM -SHRA BR OVC008=



000
FTUS41 KLWX 031434 AAA
TAFMRB
TAF AMD
KMRB 031434Z 0315/0412 VRB03KT 6SM BR SCT050 BKN150
     FM032200 15006KT P6SM -SHRA OVC050
     FM040100 14004KT 5SM -SHRA BR OVC040
     FM040400 13005KT 2SM -SHRA BR OVC030
     FM040900 06004KT 2SM -SHRA BR OVC008=



000
FTUS41 KLWX 031133
TAFMRB
TAF
KMRB 031133Z 0312/0412 00000KT 1/4SM FG VV002
     FM031300 00000KT 3SM BR BKN140
     FM031500 VRB03KT P6SM BKN120
     FM032100 15009KT P6SM OVC040
     FM032200 15007KT 6SM -SHRA OVC040
     FM040700 13004KT 6SM -SHRA OVC001=



000
FTUS41 KLWX 031133
TAFIAD
TAF
KIAD 031133Z 0312/0418 00000KT 2SM BR BKN140
     FM031400 VRB03KT P6SM BKN130
     FM032100 15008KT 6SM -SHRA OVC045
     FM040700 12006KT 6SM -SHRA OVC010
     FM041000 13005KT P6SM OVC008
     FM041400 25005KT 6SM -SHRA OVC015=



000
FTUS41 KLWX 031133
TAFBWI
TAF
KBWI 031133Z 0312/0418 00000KT 2SM BR BKN150
     FM031300 VRB03KT P6SM BKN150
     FM040400 12004KT 6SM -SHRA OVC020
     FM041000 12006KT P6SM OVC009
     FM041500 24004KT 6SM -SHRA OVC015 WS020/05020KT=



000
FTUS41 KLWX 031133
TAFDCA
TAF
KDCA 031133Z 0312/0412 00000KT 2SM BR BKN150
     FM031300 VRB03KT 6SM BR BKN140
     FM032100 15008KT P6SM OVC050
     FM040400 12006KT 6SM -SHRA OVC020
     FM040800 09006KT 6SM -SHRA OVC010
     FM041000 10006KT P6SM OVC008=



000
FTUS41 KLWX 031133
TAFCHO
TAF
KCHO 031133Z 0312/0412 00000KT 2SM BR OVC100
     FM031400 VRB03KT 6SM BR OVC060
     FM031800 14004KT 6SM -SHRA OVC030
     FM040500 08005KT 6SM -SHRA OVC003
     FM041100 00000KT 6SM -SHRA OVC008=



000
FTUS41 KLWX 031133
TAFMTN
TAF
KMTN 031133Z 0312/0412 05004KT P6SM BKN200
     FM031700 12005KT P6SM BKN140
     FM032100 15004KT P6SM OVC050
     FM040400 VRB03KT 6SM -SHRA OVC045
     FM040700 VRB03KT 6SM -SHRA OVC020
     FM041000 08005KT P6SM OVC010=



000
FTUS41 KLWX 031133
TAFIAD
TAF
KIAD 031133Z 0312/0418 00000KT 2SM BR BKN140
     FM031400 VRB03KT P6SM BKN130
     FM032100 15008KT 6SM -SHRA OVC045
     FM040700 12006KT 6SM -SHRA OVC010
     FM041000 13005KT P6SM OVC008
     FM041400 25005KT 6SM -SHRA OVC015=



000
FTUS41 KLWX 031133
TAFCHO
TAF
KCHO 031133Z 0312/0412 00000KT 2SM BR OVC100
     FM031400 VRB03KT 6SM BR OVC060
     FM031800 14004KT 6SM -SHRA OVC030
     FM040500 08005KT 6SM -SHRA OVC003
     FM041100 00000KT 6SM -SHRA OVC008=



000
FTUS41 KLWX 031133
TAFMTN
TAF
KMTN 031133Z 0312/0412 05004KT P6SM BKN200
     FM031700 12005KT P6SM BKN140
     FM032100 15004KT P6SM OVC050
     FM040400 VRB03KT 6SM -SHRA OVC045
     FM040700 VRB03KT 6SM -SHRA OVC020
     FM041000 08005KT P6SM OVC010=



000
FTUS41 KLWX 031133
TAFMRB
TAF
KMRB 031133Z 0312/0412 00000KT 1/4SM FG VV002
     FM031300 00000KT 3SM BR BKN140
     FM031500 VRB03KT P6SM BKN120
     FM032100 15009KT P6SM OVC040
     FM032200 15007KT 6SM -SHRA OVC040
     FM040700 13004KT 6SM -SHRA OVC001=



000
FTUS41 KLWX 031133
TAFDCA
TAF
KDCA 031133Z 0312/0412 00000KT 2SM BR BKN150
     FM031300 VRB03KT 6SM BR BKN140
     FM032100 15008KT P6SM OVC050
     FM040400 12006KT 6SM -SHRA OVC020
     FM040800 09006KT 6SM -SHRA OVC010
     FM041000 10006KT P6SM OVC008=



000
FTUS41 KLWX 031133
TAFBWI
TAF
KBWI 031133Z 0312/0418 00000KT 2SM BR BKN150
     FM031300 VRB03KT P6SM BKN150
     FM040400 12004KT 6SM -SHRA OVC020
     FM041000 12006KT P6SM OVC009
     FM041500 24004KT 6SM -SHRA OVC015 WS020/05020KT=



000
FTUS41 KLWX 031006 AAB
TAFMRB
TAF AMD
KMRB 031006Z 0310/0406 00000KT 1/4SM FG VV002
     FM031100 00000KT 2SM BR BKN150
     FM031200 00000KT P6SM BKN100
     FM032200 14005KT 5SM -SHRA OVC040
     FM040400 15004KT P6SM OVC040=



000
FTUS41 KLWX 030959 AAB
TAFCHO
TAF AMD
KCHO 030959Z 0310/0406 00000KT 2SM BR BKN080
     FM031100 00000KT 4SM BR OVC060
     FM031200 VRB03KT P6SM OVC035
     FM031600 11004KT 5SM -SHRA OVC035=



000
FTUS41 KLWX 030959 AAB
TAFIAD
TAF AMD
KIAD 030959Z 0310/0412 00000KT 2SM BR BKN250
     FM031100 00000KT 4SM BR BKN150
     FM031200 06004KT P6SM OVC100
     FM031600 12004KT P6SM BKN040
     FM032200 13005KT 5SM -SHRA OVC050
     FM040400 14005KT P6SM OVC050=



000
FTUS41 KLWX 030958 AAB
TAFDCA
TAF AMD
KDCA 030958Z 0310/0406 03005KT 2SM BR BKN250
     FM031200 06004KT P6SM BKN150
     FM031600 11005KT P6SM BKN040
     FM032200 13006KT 5SM -SHRA OVC060
     FM040400 14006KT P6SM OVC060=



000
FTUS41 KLWX 030838 AAA
TAFBWI
TAF AMD
KBWI 030838Z 0309/0412 00000KT 4SM BR SKC
     FM031100 04004KT P6SM BKN150
     FM031600 10005KT P6SM BKN050=



000
FTUS41 KLWX 030837 AAA
TAFDCA
TAF AMD
KDCA 030837Z 0309/0406 00000KT 5SM BR SKC
     FM031000 03005KT P6SM BKN150
     FM031600 11005KT P6SM BKN040
     FM032200 13006KT 5SM -SHRA OVC060
     FM040400 14006KT P6SM OVC060=



000
FTUS41 KLWX 030836 AAA
TAFIAD
TAF AMD
KIAD 030836Z 0309/0412 00000KT 2SM BR SKC
     FM031000 00000KT 4SM BR BKN150
     FM031200 VRB04KT P6SM OVC100
     FM031600 12004KT P6SM BKN040
     FM032200 13005KT 5SM -SHRA OVC050
     FM040400 14005KT P6SM OVC050=



000
FTUS41 KLWX 030834 AAA
TAFCHO
TAF AMD
KCHO 030834Z 0309/0406 00000KT 2SM BR BKN090
     FM030930 00000KT 4SM BR OVC080
     FM031200 VRB03KT P6SM OVC035
     FM031600 11004KT 5SM -SHRA OVC035=



000
FTUS41 KLWX 030833 AAA
TAFMRB
TAF AMD
KMRB 030833Z 0309/0406 00000KT 1/4SM FG VV001
     FM031000 00000KT 2SM BR BKN150
     FM031200 00000KT P6SM BKN130
     FM032200 14005KT 5SM -SHRA OVC040
     FM040400 15004KT P6SM OVC040=



000
FTUS41 KLWX 030542 RRA
TAFIAD
TAF
KIAD 030542Z 0306/0412 00000KT 3SM BR FEW250
     FM031000 VRB04KT P6SM SCT150
     FM031600 12004KT P6SM BKN040
     FM032200 13005KT 5SM -SHRA OVC050
     FM040400 14005KT P6SM OVC050=



000
FTUS41 KLWX 030542 RRA
TAFBWI
TAF
KBWI 030542Z 0306/0412 00000KT 5SM BR FEW250
     FM031000 00000KT P6SM SCT200
     FM031600 10004KT P6SM BKN040=



000
FTUS41 KLWX 030542 RRA
TAFCHO
TAF
KCHO 030542Z 0306/0406 00000KT 5SM BR BKN050
     FM031400 VRB03KT P6SM OVC030
     FM031600 11004KT 5SM -SHRA OVC035=



000
FTUS41 KLWX 030542 RRA
TAFDCA
TAF
KDCA 030542Z 0306/0406 00000KT P6SM FEW250
     FM031000 03005KT P6SM SCT150
     FM031600 11005KT P6SM BKN040
     FM032200 13006KT 5SM -SHRA OVC060
     FM040400 14006KT P6SM OVC060=



000
FTUS41 KLWX 030542 RRA
TAFMTN
TAF
KMTN 030542Z 0306/0406 NIL=



000
FTUS41 KLWX 030542 RRA
TAFMRB
TAF
KMRB 030542Z 0306/0406 00000KT 1/4SM FG FEW250
     FM031000 00000KT 3SM BR SCT150
     FM031400 00000KT P6SM BKN130
     FM032200 14005KT 5SM -SHRA OVC040
     FM040400 15004KT P6SM OVC040=



000
FTUS41 KLWX 022320
TAFIAD
TAF
KIAD 022320Z 0300/0406 VRB03KT P6SM SCT050 BKN080
     FM030600 VRB03KT 5SM BR SCT015 BKN080
     FM031200 VRB03KT P6SM BKN015 OVC050
     FM031800 09004KT 6SM -SHRA SCT025 OVC050
     FM040200 13005KT 5SM -SHRA BKN015 OVC050=



000
FTUS41 KLWX 022320
TAFMRB
TAF
KMRB 022320Z 0300/0324 VRB03KT P6SM SCT050 BKN080
     FM030300 VRB03KT 5SM BR SCT050 BKN080
     FM030600 VRB03KT 2SM BR SCT015 BKN080
     FM031200 VRB03KT 6SM BR SCT015 BKN025
     FM031600 09004KT 5SM -SHRA SCT025 OVC050=



000
FTUS41 KLWX 022320
TAFCHO
TAF
KCHO 022320Z 0300/0324 VRB03KT P6SM SCT050 BKN080
     FM030300 VRB03KT 5SM BR SCT050 BKN080
     FM030600 VRB03KT 2SM BR BKN015 BKN050
     FM031200 VRB03KT 5SM -SHRA BR SCT015 OVC025
     FM031800 09006KT 5SM -SHRA BKN025 OVC050=



000
FTUS41 KLWX 022320
TAFMTN
TAF
KMTN 022320Z 0300/0324 VRB03KT P6SM SCT050 BKN080
     FM031200 VRB03KT P6SM SCT015 BKN025
     FM031800 12006KT P6SM SCT025 OVC050
      AMD NOT SKED 0302/0312=



000
FTUS41 KLWX 022320
TAFBWI
TAF
KBWI 022320Z 0300/0406 VRB03KT P6SM SCT050 BKN080
     FM030900 VRB03KT 5SM BR SCT015 BKN080
     FM031200 VRB04KT P6SM SCT015 BKN025
     FM031800 11005KT P6SM SCT025 OVC050
     FM040200 12005KT P6SM BKN015 OVC050=



000
FTUS41 KLWX 022320
TAFDCA
TAF
KDCA 022320Z 0300/0324 VRB03KT P6SM SCT050 BKN080
     FM031200 VRB03KT P6SM SCT015 BKN025 OVC050
     FM031600 10006KT P6SM SCT025 OVC050
     FM032200 11006KT 5SM -SHRA BKN025 OVC050=



000
FTUS41 KLWX 022054 AAA
TAFIAD
TAF AMD
KIAD 022054Z 0221/0324 VRB04KT P6SM SCT050 OVC070
     FM030800 VRB03KT 5SM BR SCT008 BKN020
     FM031300 04004KT P6SM SCT015 OVC035
     FM031600 06004KT P6SM -SHRA SCT015 OVC035
     FM032200 11004KT P6SM OVC035=



000
FTUS41 KLWX 022054 AAA
TAFDCA
TAF AMD
KDCA 022054Z 0221/0318 VRB04KT P6SM SCT050 OVC070
     FM030800 00000KT P6SM SCT010 BKN025
     FM031300 VRB03KT P6SM SCT015 BKN035
     FM031600 08005KT P6SM -SHRA SCT015 OVC040=



000
FTUS41 KLWX 022054 AAA
TAFBWI
TAF AMD
KBWI 022054Z 0221/0324 VRB04KT P6SM SCT050 OVC070
     FM030800 00000KT 5SM BR SCT008 BKN025
     FM031300 06004KT P6SM SCT015 BKN035=



000
FTUS41 KLWX 021740
TAFCHO
TAF
KCHO 021740Z 0218/0318 00000KT P6SM BKN050
     FM022100 VRB03KT 5SM -SHRA VCTS SCT050CB OVC070
     FM030100 VRB03KT 5SM BR SCT050 OVC070
     FM030600 00000KT 3SM BR BKN025 OVC050
     FM030900 00000KT 2SM BR SCT008 OVC015
     FM031300 00000KT 2SM -SHRA BR SCT008 OVC025
     FM031600 VRB03KT 3SM -SHRA BR SCT015 OVC045=



000
FTUS41 KLWX 021740
TAFMRB
TAF
KMRB 021740Z 0218/0318 VRB04KT P6SM OVC070
     FM030600 32004KT 3SM BR SCT050 BKN080
     FM030900 02004KT 3SM BR SCT008 BKN025
     FM031300 03005KT P6SM SCT015 BKN025=



000
FTUS41 KLWX 021740
TAFBWI
TAF
KBWI 021740Z 0218/0324 00000KT P6SM SCT050 OVC060
     FM030800 00000KT 5SM BR SCT008 BKN025
     FM031300 06004KT P6SM SCT015 BKN035=



000
FTUS41 KLWX 021740
TAFDCA
TAF
KDCA 021740Z 0218/0318 VRB04KT P6SM OVC070
     FM030800 00000KT P6SM SCT010 BKN025
     FM031300 VRB03KT P6SM SCT015 BKN035
     FM031600 08005KT P6SM -SHRA SCT015 OVC040=



000
FTUS41 KLWX 021740
TAFMTN
TAF
KMTN 021740Z 0218/0318 00000KT P6SM OVC070=



000
FTUS41 KLWX 021740
TAFIAD
TAF
KIAD 021740Z 0218/0324 35007KT P6SM BKN050 OVC100
     FM030800 VRB03KT 5SM BR SCT008 BKN020
     FM031300 04004KT P6SM SCT015 OVC035
     FM031600 06004KT P6SM -SHRA SCT015 OVC035
     FM032200 11004KT P6SM OVC035=



000
FTUS41 KLWX 021457 AAA
TAFCHO
TAF AMD
KCHO 021457Z 0215/0312 VRB03KT 6SM HZ OVC050
     FM021900 VRB03KT 5SM -SHRA VCTS BKN050CB
     FM030100 00000KT P6SM -SHRA SCT050 OVC080
     FM030700 VRB03KT 3SM BR SCT050 OVC070
     FM031000 VRB03KT 2SM BR SCT015 OVC050=



000
FTUS41 KLWX 021454 AAA
TAFMRB
TAF AMD
KMRB 021454Z 0215/0312 00000KT 5SM HZ OVC070
     FM021700 00000KT P6SM SCT050 BKN100
     FM030700 VRB03KT 5SM BR SCT050 BKN100=



000
FTUS41 KLWX 021454 AAA
TAFMRB
TAF AMD
KMRB 021454Z 0215/0312 00000KT 5SM HZ OVC070
     FM021700 00000KT P6SM SCT050 BKN100
     FM030700 VRB03KT 5SM BR SCT050 BKN100=



000
FTUS41 KLWX 021452 AAA
TAFDCA
TAF AMD
KDCA 021452Z 0215/0312 03007KT P6SM VCSH SCT040 OVC070
     FM021700 07007KT P6SM BKN050
     FM030000 11004KT P6SM SCT050 BKN140
     FM030700 VRB03KT 5SM BR SCT050 BKN120=



000
FTUS41 KLWX 021452 AAA
TAFIAD
TAF AMD
KIAD 021452Z 0215/0318 VRB03KT P6SM VCSH OVC060
     FM021700 VRB03KT P6SM BKN070
     FM022300 10004KT P6SM SCT050 BKN120
     FM031000 04004KT 5SM BR SCT015 BKN080
     FM031300 05005KT 6SM -SHRA BR SCT015 BKN060=



000
FTUS41 KLWX 021452 AAB
TAFBWI
TAF AMD
KBWI 021452Z 0215/0318 06005KT 5SM BR VCSH SCT025 OVC060
     FM021700 09004KT P6SM SCT050 BKN080
     FM030700 VRB03KT 4SM BR SCT050 BKN130
     FM031600 07005KT P6SM SCT015 BKN070=



000
FTUS41 KLWX 021452 AAA
TAFIAD
TAF AMD
KIAD 021452Z 0215/0318 VRB03KT P6SM VCSH OVC060
     FM021700 VRB03KT P6SM BKN070
     FM022300 10004KT P6SM SCT050 BKN120
     FM031000 04004KT 5SM BR SCT015 BKN080
     FM031300 05005KT 6SM -SHRA BR SCT015 BKN060=



000
FTUS41 KLWX 021452 AAB
TAFBWI
TAF AMD
KBWI 021452Z 0215/0318 06005KT 5SM BR VCSH SCT025 OVC060
     FM021700 09004KT P6SM SCT050 BKN080
     FM030700 VRB03KT 4SM BR SCT050 BKN130
     FM031600 07005KT P6SM SCT015 BKN070=



000
FTUS41 KLWX 021452 AAA
TAFDCA
TAF AMD
KDCA 021452Z 0215/0312 03007KT P6SM VCSH SCT040 OVC070
     FM021700 07007KT P6SM BKN050
     FM030000 11004KT P6SM SCT050 BKN140
     FM030700 VRB03KT 5SM BR SCT050 BKN120=



000
FTUS41 KLWX 021251 AAA
TAFBWI
TAF AMD
KBWI 021251Z 0213/0318 03005KT 5SM -SHRA BR FEW009 BKN025
      TEMPO 0213/0214 2SM SHRA BR
     FM021600 09004KT P6SM SCT050 BKN080
     FM030700 VRB03KT 4SM BR SCT050 BKN130
     FM031600 07005KT P6SM SCT015 BKN070=



000
FTUS41 KLWX 021251 AAA
TAFBWI
TAF AMD
KBWI 021251Z 0213/0318 03005KT 5SM -SHRA BR FEW009 BKN025
      TEMPO 0213/0214 2SM SHRA BR
     FM021600 09004KT P6SM SCT050 BKN080
     FM030700 VRB03KT 4SM BR SCT050 BKN130
     FM031600 07005KT P6SM SCT015 BKN070=



000
FTUS41 KLWX 021201 AAA
TAFMTN
TAF AMD
KMTN 021201Z 0212/0312 01004KT 4SM -SHRA BR BKN050
      TEMPO 0212/0213 BKN008
     FM021400 07004KT P6SM SCT050 BKN090
     FM022000 15004KT P6SM SCT050 BKN080
     FM030100 00000KT P6SM SCT050 BKN140
     FM030700 VRB03KT 4SM BR SCT050 BKN130=



000
FTUS41 KLWX 021201 AAA
TAFMTN
TAF AMD
KMTN 021201Z 0212/0312 01004KT 4SM -SHRA BR BKN050
      TEMPO 0212/0213 BKN008
     FM021400 07004KT P6SM SCT050 BKN090
     FM022000 15004KT P6SM SCT050 BKN080
     FM030100 00000KT P6SM SCT050 BKN140
     FM030700 VRB03KT 4SM BR SCT050 BKN130=



000
FTUS41 KLWX 021126
TAFBWI
TAF
KBWI 021126Z 0212/0318 02004KT 5SM -SHRA BR SCT050 BKN080
     FM021300 03005KT P6SM SCT050 BKN080
     FM021700 09004KT P6SM SCT050 BKN080
     FM030700 VRB03KT 4SM BR SCT050 BKN130
     FM031600 07005KT P6SM SCT015 BKN070=



000
FTUS41 KLWX 021126
TAFDCA
TAF
KDCA 021126Z 0212/0312 01007KT P6SM -SHRA BKN070
     FM021300 03004KT P6SM SCT050 BKN070
     FM030000 11004KT P6SM SCT050 BKN140
     FM030700 VRB03KT 5SM BR SCT050 BKN120=



000
FTUS41 KLWX 021126
TAFIAD
TAF
KIAD 021126Z 0212/0318 35008KT P6SM VCSH BKN060
     FM021300 02004KT P6SM SCT050 BKN070
     FM022300 10004KT P6SM SCT050 BKN120
     FM031000 04004KT 5SM BR SCT015 BKN080
     FM031300 05005KT 6SM -SHRA BR SCT015 BKN060=



000
FTUS41 KLWX 021126
TAFCHO
TAF
KCHO 021126Z 0212/0312 VRB03KT 5SM BR OVC050
     FM021600 VRB03KT P6SM BKN050
     FM030100 00000KT 5SM -SHRA SCT050 OVC080
     FM030700 VRB03KT 3SM -SHRA BR SCT050 OVC070
     FM031000 VRB03KT 2SM -SHRA BR SCT015 OVC050=



000
FTUS41 KLWX 021126
TAFMRB
TAF
KMRB 021126Z 0212/0312 VRB03KT 4SM BR SCT050 BKN110
     FM021400 00000KT P6SM SCT050 BKN100
     FM030700 VRB03KT 5SM BR SCT050 BKN100=



000
FTUS41 KLWX 021126
TAFMRB
TAF
KMRB 021126Z 0212/0312 VRB03KT 4SM BR SCT050 BKN110
     FM021400 00000KT P6SM SCT050 BKN100
     FM030700 VRB03KT 5SM BR SCT050 BKN100=



000
FTUS41 KLWX 021126
TAFBWI
TAF
KBWI 021126Z 0212/0318 02004KT 5SM -SHRA BR SCT050 BKN080
     FM021300 03005KT P6SM SCT050 BKN080
     FM021700 09004KT P6SM SCT050 BKN080
     FM030700 VRB03KT 4SM BR SCT050 BKN130
     FM031600 07005KT P6SM SCT015 BKN070=



000
FTUS41 KLWX 021126
TAFCHO
TAF
KCHO 021126Z 0212/0312 VRB03KT 5SM BR OVC050
     FM021600 VRB03KT P6SM BKN050
     FM030100 00000KT 5SM -SHRA SCT050 OVC080
     FM030700 VRB03KT 3SM -SHRA BR SCT050 OVC070
     FM031000 VRB03KT 2SM -SHRA BR SCT015 OVC050=



000
FTUS41 KLWX 021126
TAFIAD
TAF
KIAD 021126Z 0212/0318 35008KT P6SM VCSH BKN060
     FM021300 02004KT P6SM SCT050 BKN070
     FM022300 10004KT P6SM SCT050 BKN120
     FM031000 04004KT 5SM BR SCT015 BKN080
     FM031300 05005KT 6SM -SHRA BR SCT015 BKN060=



000
FTUS41 KLWX 021126
TAFDCA
TAF
KDCA 021126Z 0212/0312 01007KT P6SM -SHRA BKN070
     FM021300 03004KT P6SM SCT050 BKN070
     FM030000 11004KT P6SM SCT050 BKN140
     FM030700 VRB03KT 5SM BR SCT050 BKN120=



000
FTUS41 KLWX 021126
TAFMTN
TAF
KMTN 021126Z 0212/0312 01004KT 5SM -SHRA BKN050
     FM021400 07004KT P6SM SCT050 BKN090
     FM022000 15004KT P6SM SCT050 BKN080
     FM030100 00000KT P6SM SCT050 BKN140
     FM030700 VRB03KT 4SM BR SCT050 BKN130=



000
FTUS41 KLWX 021126
TAFMTN
TAF
KMTN 021126Z 0212/0312 01004KT 5SM -SHRA BKN050
     FM021400 07004KT P6SM SCT050 BKN090
     FM022000 15004KT P6SM SCT050 BKN080
     FM030100 00000KT P6SM SCT050 BKN140
     FM030700 VRB03KT 4SM BR SCT050 BKN130=



000
FTUS41 KLWX 021120
TAFCHO
TAF
KCHO 021120Z 0212/0312 VRB03KT 5SM BR OVC050
     FM021600 VRB03KT P6SM BKN045 BKN050
     FM030100 00000KT 5SM -SHRA SCT050 OVC080
     FM030700 VRB03KT 3SM -SHRA BR SCT050 OVC070
     FM031000 VRB03KT 2SM -SHRA BR SCT015 OVC050=



000
FTUS41 KLWX 021120
TAFDCA
TAF
KDCA 021120Z 0212/0312 02004KT 6SM -SHRA BR VCTS SCT050CB BKN070
     FM021300 03004KT P6SM SCT050 BKN070
     FM030000 11004KT P6SM SCT050 BKN140
     FM030700 VRB03KT 5SM BR SCT050 BKN120=



000
FTUS41 KLWX 021120
TAFDCA
TAF
KDCA 021120Z 0212/0312 01004KT 6SM -SHRA VCTS SCT050CB BKN130
     FM021300 03004KT P6SM SCT050 BKN080
     FM030000 11004KT P6SM SCT050 BKN150=



000
FTUS41 KLWX 021120
TAFMTN
TAF
KMTN 021120Z 0212/0312 01004KT P6SM SCT050 BKN090
     FM021500 07004KT P6SM SCT050 BKN090
     FM022000 15004KT P6SM SCT050 BKN080
     FM030100 00000KT P6SM SCT050 BKN140
     FM030700 VRB03KT 4SM BR SCT050 BKN130=



000
FTUS41 KLWX 021120
TAFBWI
TAF
KBWI 021120Z 0212/0318 02004KT P6SM -SHRA VCTS SCT050CB BKN080
     FM021300 03005KT P6SM SCT050 BKN080
     FM021700 09004KT P6SM SCT050 BKN080
     FM030700 VRB03KT 4SM BR SCT050 BKN130
     FM031600 07005KT P6SM SCT015 BKN070=



000
FTUS41 KLWX 021120
TAFIAD
TAF
KIAD 021120Z 0212/0318 01004KT P6SM -SHRA VCTS SCT050CB BKN070
     FM021300 02004KT P6SM SCT050 BKN070
     FM022300 10004KT P6SM SCT050 BKN120
     FM031000 04004KT 5SM BR SCT015 BKN080
     FM031300 05005KT 6SM -SHRA BR SCT015 BKN060=



000
FTUS41 KLWX 021120
TAFBWI
TAF
KBWI 021120Z 0212/0318 02004KT P6SM -SHRA VCTS SCT050CB BKN080
     FM021300 03005KT P6SM SCT050 BKN080
     FM021700 09004KT P6SM SCT050 BKN080
     FM030700 VRB03KT 4SM BR SCT050 BKN130
     FM031600 07005KT P6SM SCT015 BKN070=



000
FTUS41 KLWX 021120
TAFIAD
TAF
KIAD 021120Z 0212/0318 01004KT P6SM -SHRA VCTS SCT050CB BKN070
     FM021300 02004KT P6SM SCT050 BKN070
     FM022300 10004KT P6SM SCT050 BKN120
     FM031000 04004KT 5SM BR SCT015 BKN080
     FM031300 05005KT 6SM -SHRA BR SCT015 BKN060=



000
FTUS41 KLWX 021120
TAFCHO
TAF
KCHO 021120Z 0212/0312 VRB03KT 5SM BR OVC050
     FM021600 VRB03KT P6SM BKN045 BKN050
     FM030100 00000KT 5SM -SHRA SCT050 OVC080
     FM030700 VRB03KT 3SM -SHRA BR SCT050 OVC070
     FM031000 VRB03KT 2SM -SHRA BR SCT015 OVC050=



000
FTUS41 KLWX 021120
TAFMRB
TAF
KMRB 021120Z 0212/0312 VRB03KT 5SM BR SCT050 BKN110
     FM021600 00000KT P6SM SCT050 BKN100
     FM030700 VRB03KT 5SM BR SCT050 BKN100=



000
FTUS41 KLWX 021120
TAFDCA
TAF
KDCA 021120Z 0212/0312 02004KT 6SM -SHRA BR VCTS SCT050CB BKN070
     FM021300 03004KT P6SM SCT050 BKN070
     FM030000 11004KT P6SM SCT050 BKN140
     FM030700 VRB03KT 5SM BR SCT050 BKN120=



000
FTUS41 KLWX 021120
TAFDCA
TAF
KDCA 021120Z 0212/0312 01004KT 6SM -SHRA VCTS SCT050CB BKN130
     FM021300 03004KT P6SM SCT050 BKN080
     FM030000 11004KT P6SM SCT050 BKN150=



000
FTUS41 KLWX 021120
TAFMRB
TAF
KMRB 021120Z 0212/0312 VRB03KT 5SM BR SCT050 BKN110
     FM021600 00000KT P6SM SCT050 BKN100
     FM030700 VRB03KT 5SM BR SCT050 BKN100=



000
FTUS41 KLWX 021120
TAFMTN
TAF
KMTN 021120Z 0212/0312 01004KT P6SM SCT050 BKN090
     FM021500 07004KT P6SM SCT050 BKN090
     FM022000 15004KT P6SM SCT050 BKN080
     FM030100 00000KT P6SM SCT050 BKN140
     FM030700 VRB03KT 4SM BR SCT050 BKN130=



000
FTUS41 KLWX 021019 AAC
TAFDCA
TAF AMD
KDCA 021019Z 0210/0306 01004KT 6SM -SHRA VCTS SCT050CB BKN130
     FM021300 03004KT P6SM SCT050 BKN080
     FM030000 11004KT P6SM SCT050 BKN150=



000
FTUS41 KLWX 020947 AAB
TAFBWI
TAF AMD
KBWI 020947Z 0210/0312 36004KT P6SM -SHRA SCT050 BKN150
     FM021300 03005KT P6SM SCT050 BKN100
     FM021700 09004KT P6SM SCT050 BKN100
     FM030700 VRB03KT 4SM BR SCT050 BKN120=



000
FTUS41 KLWX 020947 AAB
TAFDCA
TAF AMD
KDCA 020947Z 0210/0306 01004KT 6SM -SHRA BR SCT050 BKN130
     FM021300 03004KT P6SM SCT050 BKN080
     FM030000 11004KT P6SM SCT050 BKN150=



000
FTUS41 KLWX 020947 AAB
TAFIAD
TAF AMD
KIAD 020947Z 0210/0312 VRB03KT P6SM -SHRA SCT050 BKN130
     FM021300 02004KT P6SM SCT050 BKN080
     FM022300 10004KT P6SM SCT050 BKN100
     FM031000 04004KT 5SM BR SCT015 BKN070=



000
FTUS41 KLWX 020831 AAA
TAFIAD
TAF AMD
KIAD 020831Z 0209/0312 VRB03KT P6SM SCT050 BKN130
     FM031000 04004KT 5SM BR SCT015 BKN070=



000
FTUS41 KLWX 020831 AAA
TAFDCA
TAF AMD
KDCA 020831Z 0209/0306 VRB03KT P6SM SCT050 BKN130=



000
FTUS41 KLWX 020831 AAA
TAFBWI
TAF AMD
KBWI 020831Z 0209/0312 VRB03KT P6SM SCT050 BKN150
     FM030700 VRB03KT 4SM BR SCT050 BKN120=



000
FTUS41 KLWX 020831 AAA
TAFIAD
TAF AMD
KIAD 020831Z 0209/0312 VRB03KT P6SM SCT050 BKN130
     FM031000 04004KT 5SM BR SCT015 BKN070=



000
FTUS41 KLWX 020831 AAA
TAFBWI
TAF AMD
KBWI 020831Z 0209/0312 VRB03KT P6SM SCT050 BKN150
     FM030700 VRB03KT 4SM BR SCT050 BKN120=



000
FTUS41 KLWX 020831 AAA
TAFDCA
TAF AMD
KDCA 020831Z 0209/0306 VRB03KT P6SM SCT050 BKN130=



000
FTUS41 KLWX 020729 AAA
TAFMRB
TAF AMD
KMRB 020729Z 0207/0306 VRB03KT P6SM SCT200
      TEMPO 0207/0211 4SM BR
     FM021500 00000KT P6SM SCT050 BKN110=



000
FTUS41 KLWX 020529
TAFIAD
TAF
KIAD 020529Z 0206/0312 VRB03KT P6SM SCT200
     FM021200 01004KT P6SM BKN080
     FM022300 10004KT P6SM SCT050 BKN100
     FM031000 04004KT 5SM BR SCT015 BKN070=



000
FTUS41 KLWX 020529
TAFDCA
TAF
KDCA 020529Z 0206/0306 VRB03KT P6SM SCT200
     FM021200 02004KT P6SM BKN080
     FM030000 11004KT P6SM SCT050 BKN150=



000
FTUS41 KLWX 020529
TAFCHO
TAF
KCHO 020529Z 0206/0306 00000KT P6SM BKN130
     FM020700 00000KT 6SM BR VCTS BKN130CB
     FM021000 00000KT 5SM BR OVC060
     FM021600 VRB03KT P6SM BKN050
     FM030100 00000KT 5SM -SHRA SCT050 OVC070=



000
FTUS41 KLWX 020529
TAFBWI
TAF
KBWI 020529Z 0206/0312 VRB03KT P6SM SCT200
     FM021200 02004KT P6SM BKN100
     FM021700 09004KT P6SM SCT050 BKN100
     FM030700 VRB03KT P6SM SCT050 BKN120=



000
FTUS41 KLWX 020529
TAFMTN
TAF
KMTN 020529Z 0206/0306 NIL=



000
FTUS41 KLWX 020529
TAFMRB
TAF
KMRB 020529Z 0206/0306 VRB03KT P6SM SCT200
     FM021500 00000KT P6SM SCT050 BKN110=



000
FTUS41 KLWX 012333
TAFBWI
TAF
KBWI 012333Z 0200/0306 VRB04KT P6SM SCT200
     FM020900 34004KT 5SM BR BKN080
     FM021200 VRB04KT P6SM SCT050 BKN080 BKN200
     FM021800 14005KT P6SM BKN050 BKN120=



000
FTUS41 KLWX 012333
TAFIAD
TAF
KIAD 012333Z 0200/0306 VRB04KT P6SM SCT200
     FM020900 VRB03KT 5SM BR BKN080
     FM021200 VRB04KT P6SM SCT050 BKN080 BKN200
     FM022000 VRB04KT P6SM BKN050 BKN120=



000
FTUS41 KLWX 012333
TAFBWI
TAF
KBWI 012333Z 0200/0306 VRB04KT P6SM SCT200
     FM020900 34004KT 5SM BR BKN080
     FM021200 VRB04KT P6SM SCT050 BKN080 BKN200
     FM021800 14005KT P6SM BKN050 BKN120=



000
FTUS41 KLWX 012333
TAFIAD
TAF
KIAD 012333Z 0200/0306 VRB04KT P6SM SCT200
     FM020900 VRB03KT 5SM BR BKN080
     FM021200 VRB04KT P6SM SCT050 BKN080 BKN200
     FM022000 VRB04KT P6SM BKN050 BKN120=



000
FTUS41 KLWX 012333
TAFDCA
TAF
KDCA 012333Z 0200/0224 VRB15KT 3SM TSRA OVC050CB
     FM020100 VRB04KT P6SM SCT200
     FM021600 15005KT P6SM SCT050 BKN080 BKN200
     FM022000 15005KT P6SM BKN050 BKN120=



000
FTUS41 KLWX 012333
TAFCHO
TAF
KCHO 012333Z 0200/0224 VRB03KT P6SM BKN200
     FM020700 00000KT 5SM BR BKN120
     FM021200 VRB04KT P6SM BKN050 OVC200=



000
FTUS41 KLWX 012333
TAFCHO
TAF
KCHO 012333Z 0200/0224 VRB03KT P6SM BKN200
     FM020700 00000KT 5SM BR BKN120
     FM021200 VRB04KT P6SM BKN050 OVC200=



000
FTUS41 KLWX 012333
TAFMRB
TAF
KMRB 012333Z 0200/0224 VRB03KT P6SM FEW200
     FM020700 VRB03KT 5SM BR SCT200
     FM021200 VRB03KT P6SM SCT200
     FM021500 VRB03KT P6SM SCT050 BKN120=



000
FTUS41 KLWX 012333
TAFMTN
TAF
KMTN 012333Z 0200/0224 VRB04KT P6SM SCT200
     FM021400 09005KT P6SM SCT050 BKN080 BKN200
     FM021800 14005KT P6SM BKN050 BKN120
      AMD NOT SKED 0202/0212=



000
FTUS41 KLWX 012333
TAFDCA
TAF
KDCA 012333Z 0200/0224 VRB15KT 3SM TSRA OVC050CB
     FM020100 VRB04KT P6SM SCT200
     FM021600 15005KT P6SM SCT050 BKN080 BKN200
     FM022000 15005KT P6SM BKN050 BKN120=



000
FTUS41 KLWX 012333
TAFMRB
TAF
KMRB 012333Z 0200/0224 VRB03KT P6SM FEW200
     FM020700 VRB03KT 5SM BR SCT200
     FM021200 VRB03KT P6SM SCT200
     FM021500 VRB03KT P6SM SCT050 BKN120=



000
FTUS41 KLWX 012333
TAFMTN
TAF
KMTN 012333Z 0200/0224 VRB04KT P6SM SCT200
     FM021400 09005KT P6SM SCT050 BKN080 BKN200
     FM021800 14005KT P6SM BKN050 BKN120
      AMD NOT SKED 0202/0212=



000
FTUS41 KLWX 012048 AAB
TAFIAD
TAF AMD
KIAD 012048Z 0121/0224 25007KT P6SM BKN050
     FM020100 VRB03KT P6SM SCT250
     FM021400 35004KT P6SM BKN090
     FM022000 22004KT P6SM VCTS BKN050CB
     FM022300 13004KT P6SM BKN090=



000
FTUS41 KLWX 012048 AAA
TAFBWI
TAF AMD
KBWI 012048Z 0121/0224 24008KT P6SM BKN050
     FM020000 26004KT P6SM SCT250
     FM020600 32004KT P6SM SCT250
     FM021400 02004KT P6SM SCT090
     FM021600 VRB03KT P6SM BKN050=



000
FTUS41 KLWX 012048 AAA
TAFDCA
TAF AMD
KDCA 012048Z 0121/0218 24007KT P6SM BKN050
      TEMPO 0121/0122 VRB15KT 6SM -SHRA OVC050
     FM020000 VRB03KT P6SM BKN090
     FM021200 35004KT P6SM BKN090
     FM021700 06004KT P6SM BKN050=



000
FTUS41 KLWX 012048 AAA
TAFBWI
TAF AMD
KBWI 012048Z 0121/0224 24008KT P6SM BKN050
     FM020000 26004KT P6SM SCT250
     FM020600 32004KT P6SM SCT250
     FM021400 02004KT P6SM SCT090
     FM021600 VRB03KT P6SM BKN050=



000
FTUS41 KLWX 012048 AAA
TAFDCA
TAF AMD
KDCA 012048Z 0121/0218 24007KT P6SM BKN050
      TEMPO 0121/0122 VRB15KT 6SM -SHRA OVC050
     FM020000 VRB03KT P6SM BKN090
     FM021200 35004KT P6SM BKN090
     FM021700 06004KT P6SM BKN050=



000
FTUS41 KLWX 012048 AAB
TAFIAD
TAF AMD
KIAD 012048Z 0121/0224 25007KT P6SM BKN050
     FM020100 VRB03KT P6SM SCT250
     FM021400 35004KT P6SM BKN090
     FM022000 22004KT P6SM VCTS BKN050CB
     FM022300 13004KT P6SM BKN090=



000
FTUS41 KLWX 012001 AAA
TAFIAD
TAF AMD
KIAD 012001Z 0120/0224 26007KT P6SM BKN050
      TEMPO 0120/0121 VRB15KT 5SM -SHRA
     FM020100 VRB03KT P6SM SCT250
     FM021400 35004KT P6SM BKN090
     FM022000 22004KT P6SM VCTS BKN050CB
     FM022300 13004KT P6SM BKN090=



000
FTUS41 KLWX 011745
TAFMRB
TAF
KMRB 011745Z 0118/0218 27011KT P6SM BKN050
     FM012300 29005KT P6SM SCT250
     FM021400 00000KT P6SM SCT090=



000
FTUS41 KLWX 011745
TAFCHO
TAF
KCHO 011745Z 0118/0218 25007KT P6SM BKN050
     FM012000 24008KT P6SM VCTS BKN050CB
     FM020000 VRB03KT P6SM SCT250
     FM021200 VRB03KT P6SM BKN050=



000
FTUS41 KLWX 011745
TAFDCA
TAF
KDCA 011745Z 0118/0218 24007KT P6SM BKN050
     FM020000 VRB03KT P6SM BKN090
     FM021200 35004KT P6SM BKN090
     FM021700 06004KT P6SM BKN050=



000
FTUS41 KLWX 011745
TAFBWI
TAF
KBWI 011745Z 0118/0224 25010KT P6SM BKN050
     FM020000 26004KT P6SM SCT250
     FM020600 32004KT P6SM SCT250
     FM021400 02004KT P6SM SCT090
     FM021600 VRB03KT P6SM BKN050=



000
FTUS41 KLWX 011745
TAFIAD
TAF
KIAD 011745Z 0118/0224 26007KT P6SM BKN050
     FM020100 VRB03KT P6SM SCT250
     FM021400 35004KT P6SM BKN090
     FM022000 22004KT P6SM VCTS BKN050CB
     FM022300 13004KT P6SM BKN090=



000
FTUS41 KLWX 011745
TAFMTN
TAF
KMTN 011745Z 0118/0218 24010KT P6SM BKN050
     FM020800 33004KT P6SM SCT250
     FM021400 03004KT P6SM SCT090
     FM021700 VRB03KT P6SM BKN090=



000
FTUS41 KLWX 011520 AAB
TAFIAD
TAF AMD
KIAD 011520Z 0115/0218 20007KT P6SM FEW090
     FM020100 VRB03KT P6SM SCT070
     FM021400 35004KT P6SM BKN050
     FM021700 28004KT P6SM BKN050=



000
FTUS41 KLWX 011520 AAB
TAFBWI
TAF AMD
KBWI 011520Z 0115/0218 26008KT P6SM SKC
     FM011900 25008KT P6SM BKN050
     FM020100 VRB03KT P6SM SCT070=



000
FTUS41 KLWX 011520 AAB
TAFDCA
TAF AMD
KDCA 011520Z 0115/0212 17009KT P6SM SKC
     FM012000 25008KT P6SM BKN050
     FM020000 VRB03KT P6SM SCT070=



000
FTUS41 KLWX 011502 AAA
TAFBWI
TAF AMD
KBWI 011502Z 0115/0218 26008KT P6SM SKC
     FM011600 25009KT P6SM SCT050
     FM011900 25009KT P6SM BKN050
     FM012300 25005KT P6SM SCT250
     FM020200 00000KT P6SM SCT200=



000
FTUS41 KLWX 011502 AAA
TAFBWI
TAF AMD
KBWI 011502Z 0115/0218 26008KT P6SM SKC
     FM011600 25009KT P6SM SCT050
     FM011900 25009KT P6SM BKN050
     FM012300 25005KT P6SM SCT250
     FM020200 00000KT P6SM SCT200=



000
FTUS41 KLWX 011443 AAA
TAFMRB
TAF AMD
KMRB 011443Z 0115/0212 25013G18KT P6SM SKC
     FM011800 26010KT P6SM BKN050
     FM012300 28006KT P6SM SCT250=



000
FTUS41 KLWX 011443 AAA
TAFMRB
TAF AMD
KMRB 011443Z 0115/0212 25013G18KT P6SM SKC
     FM011800 26010KT P6SM BKN050
     FM012300 28006KT P6SM SCT250=



000
FTUS41 KLWX 011240 AAA
TAFDCA
TAF AMD
KDCA 011240Z 0113/0212 21005KT P6SM SCT007
     FM011400 26006KT P6SM SCT050
     FM012000 26008KT P6SM BKN050
     FM020000 VRB03KT P6SM SCT090=



000
FTUS41 KLWX 011240 AAA
TAFIAD
TAF AMD
KIAD 011240Z 0113/0218 20003KT P6SM FEW003
     FM011400 26007KT P6SM SCT050
     FM012300 26005KT P6SM SCT250
     FM020200 00000KT P6SM SCT200=



    US Dept of Commerce
    National Oceanic and Atmospheric Administration
    National Weather Service
    1325 East West Highway
    Silver Spring, MD 20910
    Page Author: NWS Internet Services Team
Disclaimer
Information Quality
Credits
Glossary
Privacy Policy
Freedom of Information Act (FOIA)
About Us
Career Opportunities